sensor_id;sensor_type;location;lat;lon;timestamp;temperature;humidity
70051;SHT30;57391;51.306;22.680;2023-06-04T00:00:11;8.92;65.50
70051;SHT30;57391;51.306;22.680;2023-06-04T00:03:00;8.87;65.18
70051;SHT30;57391;51.306;22.680;2023-06-04T00:05:30;8.82;65.23
70051;SHT30;57391;51.306;22.680;2023-06-04T00:07:57;8.80;65.31
70051;SHT30;57391;51.306;22.680;2023-06-04T00:10:32;8.78;65.43
70051;SHT30;57391;51.306;22.680;2023-06-04T00:13:21;8.73;65.53
70051;SHT30;57391;51.306;22.680;2023-06-04T00:15:51;8.69;65.57
70051;SHT30;57391;51.306;22.680;2023-06-04T00:18:22;8.66;65.73
70051;SHT30;57391;51.306;22.680;2023-06-04T00:20:50;8.63;65.74
70051;SHT30;57391;51.306;22.680;2023-06-04T00:23:18;8.61;65.80
70051;SHT30;57391;51.306;22.680;2023-06-04T00:25:51;8.58;65.95
70051;SHT30;57391;51.306;22.680;2023-06-04T00:28:19;8.55;66.13
70051;SHT30;57391;51.306;22.680;2023-06-04T00:30:48;8.54;66.29
70051;SHT30;57391;51.306;22.680;2023-06-04T00:33:15;8.52;66.59
70051;SHT30;57391;51.306;22.680;2023-06-04T00:35:43;8.51;66.97
70051;SHT30;57391;51.306;22.680;2023-06-04T00:38:10;8.52;67.04
70051;SHT30;57391;51.306;22.680;2023-06-04T00:40:38;8.52;66.98
70051;SHT30;57391;51.306;22.680;2023-06-04T00:43:05;8.52;67.06
70051;SHT30;57391;51.306;22.680;2023-06-04T00:45:35;8.51;67.05
70051;SHT30;57391;51.306;22.680;2023-06-04T00:48:03;8.49;67.04
70051;SHT30;57391;51.306;22.680;2023-06-04T00:50:30;8.46;66.60
70051;SHT30;57391;51.306;22.680;2023-06-04T00:52:59;8.44;66.28
70051;SHT30;57391;51.306;22.680;2023-06-04T00:55:26;8.41;66.53
70051;SHT30;57391;51.306;22.680;2023-06-04T00:57:53;8.39;66.74
70051;SHT30;57391;51.306;22.680;2023-06-04T01:00:20;8.40;66.98
70051;SHT30;57391;51.306;22.680;2023-06-04T01:02:49;8.40;67.61
70051;SHT30;57391;51.306;22.680;2023-06-04T01:05:21;8.39;67.95
70051;SHT30;57391;51.306;22.680;2023-06-04T01:08:04;8.37;68.18
70051;SHT30;57391;51.306;22.680;2023-06-04T01:10:35;8.35;68.16
70051;SHT30;57391;51.306;22.680;2023-06-04T01:13:02;8.31;68.15
70051;SHT30;57391;51.306;22.680;2023-06-04T01:15:29;8.28;68.43
70051;SHT30;57391;51.306;22.680;2023-06-04T01:17:59;8.27;68.68
70051;SHT30;57391;51.306;22.680;2023-06-04T01:20:40;8.25;68.42
70051;SHT30;57391;51.306;22.680;2023-06-04T01:26:12;8.17;67.86
70051;SHT30;57391;51.306;22.680;2023-06-04T01:28:39;8.12;68.17
70051;SHT30;57391;51.306;22.680;2023-06-04T01:31:08;8.07;68.80
70051;SHT30;57391;51.306;22.680;2023-06-04T01:33:36;8.05;69.26
70051;SHT30;57391;51.306;22.680;2023-06-04T01:36:04;8.05;68.89
70051;SHT30;57391;51.306;22.680;2023-06-04T01:38:31;8.02;69.24
70051;SHT30;57391;51.306;22.680;2023-06-04T01:40:58;8.00;69.61
70051;SHT30;57391;51.306;22.680;2023-06-04T01:43:28;7.95;69.94
70051;SHT30;57391;51.306;22.680;2023-06-04T01:45:55;7.89;69.90
70051;SHT30;57391;51.306;22.680;2023-06-04T01:48:23;7.87;70.24
70051;SHT30;57391;51.306;22.680;2023-06-04T01:50:51;7.84;70.25
70051;SHT30;57391;51.306;22.680;2023-06-04T01:53:18;7.78;70.43
70051;SHT30;57391;51.306;22.680;2023-06-04T01:55:45;7.70;70.69
70051;SHT30;57391;51.306;22.680;2023-06-04T01:58:15;7.66;70.93
70051;SHT30;57391;51.306;22.680;2023-06-04T02:00:49;7.65;71.28
70051;SHT30;57391;51.306;22.680;2023-06-04T02:03:16;7.64;71.31
70051;SHT30;57391;51.306;22.680;2023-06-04T02:05:43;7.61;71.45
70051;SHT30;57391;51.306;22.680;2023-06-04T02:08:14;7.58;71.20
70051;SHT30;57391;51.306;22.680;2023-06-04T02:10:48;7.57;70.90
70051;SHT30;57391;51.306;22.680;2023-06-04T02:13:15;7.57;71.13
70051;SHT30;57391;51.306;22.680;2023-06-04T02:15:43;7.57;71.16
70051;SHT30;57391;51.306;22.680;2023-06-04T02:18:19;7.59;71.29
70051;SHT30;57391;51.306;22.680;2023-06-04T02:20:49;7.54;71.47
70051;SHT30;57391;51.306;22.680;2023-06-04T02:23:17;7.47;71.69
70051;SHT30;57391;51.306;22.680;2023-06-04T02:25:46;7.41;71.72
70051;SHT30;57391;51.306;22.680;2023-06-04T02:28:15;7.42;71.61
70051;SHT30;57391;51.306;22.680;2023-06-04T02:30:43;7.41;71.73
70051;SHT30;57391;51.306;22.680;2023-06-04T02:33:12;7.43;71.74
70051;SHT30;57391;51.306;22.680;2023-06-04T02:35:40;7.44;71.61
70051;SHT30;57391;51.306;22.680;2023-06-04T02:38:07;7.45;71.62
70051;SHT30;57391;51.306;22.680;2023-06-04T02:40:35;7.46;71.74
70051;SHT30;57391;51.306;22.680;2023-06-04T02:43:02;7.49;71.71
70051;SHT30;57391;51.306;22.680;2023-06-04T02:45:29;7.51;71.72
70051;SHT30;57391;51.306;22.680;2023-06-04T02:47:56;7.52;71.78
70051;SHT30;57391;51.306;22.680;2023-06-04T02:50:24;7.52;71.77
70051;SHT30;57391;51.306;22.680;2023-06-04T02:52:51;7.49;71.80
70051;SHT30;57391;51.306;22.680;2023-06-04T02:55:18;7.49;71.87
70051;SHT30;57391;51.306;22.680;2023-06-04T02:57:45;7.52;71.89
70051;SHT30;57391;51.306;22.680;2023-06-04T03:00:13;7.57;71.83
70051;SHT30;57391;51.306;22.680;2023-06-04T03:02:42;7.62;71.96
70051;SHT30;57391;51.306;22.680;2023-06-04T03:05:12;7.66;71.98
70051;SHT30;57391;51.306;22.680;2023-06-04T03:07:44;7.66;71.98
70051;SHT30;57391;51.306;22.680;2023-06-04T03:10:13;7.65;72.07
70051;SHT30;57391;51.306;22.680;2023-06-04T03:12:42;7.66;72.21
70051;SHT30;57391;51.306;22.680;2023-06-04T03:15:10;7.68;72.22
70051;SHT30;57391;51.306;22.680;2023-06-04T03:17:38;7.69;72.37
70051;SHT30;57391;51.306;22.680;2023-06-04T03:20:05;7.76;72.40
70051;SHT30;57391;51.306;22.680;2023-06-04T03:22:34;7.82;72.41
70051;SHT30;57391;51.306;22.680;2023-06-04T03:25:02;7.88;72.54
70051;SHT30;57391;51.306;22.680;2023-06-04T03:27:30;7.95;72.60
70051;SHT30;57391;51.306;22.680;2023-06-04T03:29:59;8.03;72.66
70051;SHT30;57391;51.306;22.680;2023-06-04T03:32:27;8.10;72.70
70051;SHT30;57391;51.306;22.680;2023-06-04T03:34:55;8.19;72.85
70051;SHT30;57391;51.306;22.680;2023-06-04T03:37:22;8.40;72.76
70051;SHT30;57391;51.306;22.680;2023-06-04T03:39:50;9.40;71.61
70051;SHT30;57391;51.306;22.680;2023-06-04T03:42:17;10.88;68.80
70051;SHT30;57391;51.306;22.680;2023-06-04T03:44:45;12.34;65.68
70051;SHT30;57391;51.306;22.680;2023-06-04T03:47:14;13.66;62.51
70051;SHT30;57391;51.306;22.680;2023-06-04T03:49:41;14.89;59.52
70051;SHT30;57391;51.306;22.680;2023-06-04T03:52:09;16.18;56.55
70051;SHT30;57391;51.306;22.680;2023-06-04T03:54:38;17.50;53.52
70051;SHT30;57391;51.306;22.680;2023-06-04T03:57:05;18.91;50.54
70051;SHT30;57391;51.306;22.680;2023-06-04T03:59:32;20.46;47.66
70051;SHT30;57391;51.306;22.680;2023-06-04T04:02:00;21.85;44.78
70051;SHT30;57391;51.306;22.680;2023-06-04T04:04:27;23.09;42.47
70051;SHT30;57391;51.306;22.680;2023-06-04T04:06:55;24.28;39.85
70051;SHT30;57391;51.306;22.680;2023-06-04T04:09:22;25.28;37.81
70051;SHT30;57391;51.306;22.680;2023-06-04T04:11:50;26.21;36.05
70051;SHT30;57391;51.306;22.680;2023-06-04T04:14:16;27.06;34.69
70051;SHT30;57391;51.306;22.680;2023-06-04T04:16:44;27.93;33.21
70051;SHT30;57391;51.306;22.680;2023-06-04T04:19:12;28.64;31.82
70051;SHT30;57391;51.306;22.680;2023-06-04T04:21:41;29.08;30.59
70051;SHT30;57391;51.306;22.680;2023-06-04T04:24:08;29.71;29.97
70051;SHT30;57391;51.306;22.680;2023-06-04T04:26:36;30.40;28.99
70051;SHT30;57391;51.306;22.680;2023-06-04T04:29:04;30.98;28.17
70051;SHT30;57391;51.306;22.680;2023-06-04T04:31:35;31.32;27.17
70051;SHT30;57391;51.306;22.680;2023-06-04T04:34:03;31.44;26.50
70051;SHT30;57391;51.306;22.680;2023-06-04T04:36:35;31.49;26.57
70051;SHT30;57391;51.306;22.680;2023-06-04T04:39:03;30.35;27.13
70051;SHT30;57391;51.306;22.680;2023-06-04T04:41:33;28.74;28.26
70051;SHT30;57391;51.306;22.680;2023-06-04T04:44:03;27.25;29.16
70051;SHT30;57391;51.306;22.680;2023-06-04T04:46:32;26.11;29.96
70051;SHT30;57391;51.306;22.680;2023-06-04T04:48:59;25.55;30.63
70051;SHT30;57391;51.306;22.680;2023-06-04T04:51:27;26.42;30.27
70051;SHT30;57391;51.306;22.680;2023-06-04T04:53:55;27.07;29.67
70051;SHT30;57391;51.306;22.680;2023-06-04T04:56:22;26.87;30.05
70051;SHT30;57391;51.306;22.680;2023-06-04T04:58:50;25.84;31.30
70051;SHT30;57391;51.306;22.680;2023-06-04T05:01:17;24.82;32.14
70051;SHT30;57391;51.306;22.680;2023-06-04T05:03:45;23.69;32.92
70051;SHT30;57391;51.306;22.680;2023-06-04T05:06:13;22.81;34.64
70051;SHT30;57391;51.306;22.680;2023-06-04T05:08:41;22.77;34.78
70051;SHT30;57391;51.306;22.680;2023-06-04T05:11:09;23.64;34.21
70051;SHT30;57391;51.306;22.680;2023-06-04T05:13:37;24.64;33.03
70051;SHT30;57391;51.306;22.680;2023-06-04T05:16:04;25.42;32.15
70051;SHT30;57391;51.306;22.680;2023-06-04T05:18:33;25.66;31.63
70051;SHT30;57391;51.306;22.680;2023-06-04T05:21:02;25.06;32.40
70051;SHT30;57391;51.306;22.680;2023-06-04T05:23:30;24.34;33.51
70051;SHT30;57391;51.306;22.680;2023-06-04T05:25:58;23.81;34.14
70051;SHT30;57391;51.306;22.680;2023-06-04T05:28:26;23.30;34.21
70051;SHT30;57391;51.306;22.680;2023-06-04T05:30:54;23.06;34.34
70051;SHT30;57391;51.306;22.680;2023-06-04T05:33:26;23.43;34.57
70051;SHT30;57391;51.306;22.680;2023-06-04T05:35:58;24.48;33.65
70051;SHT30;57391;51.306;22.680;2023-06-04T05:38:27;25.42;31.23
70051;SHT30;57391;51.306;22.680;2023-06-04T05:40:58;25.83;29.74
70051;SHT30;57391;51.306;22.680;2023-06-04T05:43:26;25.97;29.36
70051;SHT30;57391;51.306;22.680;2023-06-04T05:45:54;26.09;29.33
70051;SHT30;57391;51.306;22.680;2023-06-04T05:48:22;26.07;29.78
70051;SHT30;57391;51.306;22.680;2023-06-04T05:50:50;25.62;30.17
70051;SHT30;57391;51.306;22.680;2023-06-04T05:53:17;24.66;30.72
70051;SHT30;57391;51.306;22.680;2023-06-04T05:55:45;23.61;31.76
70051;SHT30;57391;51.306;22.680;2023-06-04T05:58:13;22.75;33.63
70051;SHT30;57391;51.306;22.680;2023-06-04T06:00:41;22.08;34.18
70051;SHT30;57391;51.306;22.680;2023-06-04T06:03:09;21.53;35.34
70051;SHT30;57391;51.306;22.680;2023-06-04T06:05:40;21.76;35.44
70051;SHT30;57391;51.306;22.680;2023-06-04T06:08:07;22.38;35.15
70051;SHT30;57391;51.306;22.680;2023-06-04T06:10:35;23.05;33.77
70051;SHT30;57391;51.306;22.680;2023-06-04T06:13:02;23.55;33.03
70051;SHT30;57391;51.306;22.680;2023-06-04T06:15:30;24.00;32.85
70051;SHT30;57391;51.306;22.680;2023-06-04T06:17:58;24.30;32.64
70051;SHT30;57391;51.306;22.680;2023-06-04T06:20:26;24.52;32.11
70051;SHT30;57391;51.306;22.680;2023-06-04T06:22:53;24.90;32.16
70051;SHT30;57391;51.306;22.680;2023-06-04T06:25:22;25.31;31.21
70051;SHT30;57391;51.306;22.680;2023-06-04T06:28:09;25.64;30.80
70051;SHT30;57391;51.306;22.680;2023-06-04T06:30:37;25.69;30.11
70051;SHT30;57391;51.306;22.680;2023-06-04T06:33:05;25.38;30.44
70051;SHT30;57391;51.306;22.680;2023-06-04T06:35:33;25.01;31.47
70051;SHT30;57391;51.306;22.680;2023-06-04T06:38:00;24.47;31.60
70051;SHT30;57391;51.306;22.680;2023-06-04T06:40:27;23.96;32.26
70051;SHT30;57391;51.306;22.680;2023-06-04T06:42:56;23.62;33.01
70051;SHT30;57391;51.306;22.680;2023-06-04T06:45:23;23.09;33.18
70051;SHT30;57391;51.306;22.680;2023-06-04T06:47:51;22.85;34.15
70051;SHT30;57391;51.306;22.680;2023-06-04T06:50:19;22.96;34.43
70051;SHT30;57391;51.306;22.680;2023-06-04T06:52:46;23.28;34.12
70051;SHT30;57391;51.306;22.680;2023-06-04T06:55:13;23.52;32.76
70051;SHT30;57391;51.306;22.680;2023-06-04T06:57:40;23.57;32.70
70051;SHT30;57391;51.306;22.680;2023-06-04T07:00:08;23.75;32.49
70051;SHT30;57391;51.306;22.680;2023-06-04T07:02:36;24.04;33.04
70051;SHT30;57391;51.306;22.680;2023-06-04T07:05:03;24.33;32.30
70051;SHT30;57391;51.306;22.680;2023-06-04T07:07:31;24.61;32.06
70051;SHT30;57391;51.306;22.680;2023-06-04T07:09:58;24.80;31.67
70051;SHT30;57391;51.306;22.680;2023-06-04T07:12:25;25.00;31.26
70051;SHT30;57391;51.306;22.680;2023-06-04T07:14:52;25.32;30.60
70051;SHT30;57391;51.306;22.680;2023-06-04T07:17:20;25.54;29.91
70051;SHT30;57391;51.306;22.680;2023-06-04T07:19:47;25.73;29.92
70051;SHT30;57391;51.306;22.680;2023-06-04T07:22:14;25.57;29.13
70051;SHT30;57391;51.306;22.680;2023-06-04T07:24:42;25.34;29.51
70051;SHT30;57391;51.306;22.680;2023-06-04T07:27:10;25.39;29.85
70051;SHT30;57391;51.306;22.680;2023-06-04T07:29:39;25.44;29.54
70051;SHT30;57391;51.306;22.680;2023-06-04T07:32:07;25.42;29.33
70051;SHT30;57391;51.306;22.680;2023-06-04T07:34:34;25.11;29.79
70051;SHT30;57391;51.306;22.680;2023-06-04T07:37:03;24.71;29.46
70051;SHT30;57391;51.306;22.680;2023-06-04T07:39:31;24.27;30.40
70051;SHT30;57391;51.306;22.680;2023-06-04T07:41:59;23.94;31.13
70051;SHT30;57391;51.306;22.680;2023-06-04T07:44:27;23.67;31.02
70051;SHT30;57391;51.306;22.680;2023-06-04T07:46:54;23.47;31.94
70051;SHT30;57391;51.306;22.680;2023-06-04T07:49:21;23.38;31.62
70051;SHT30;57391;51.306;22.680;2023-06-04T07:51:49;23.43;31.50
70051;SHT30;57391;51.306;22.680;2023-06-04T07:54:16;23.61;30.88
70051;SHT30;57391;51.306;22.680;2023-06-04T07:56:43;23.79;29.60
70051;SHT30;57391;51.306;22.680;2023-06-04T07:59:10;23.90;30.18
70051;SHT30;57391;51.306;22.680;2023-06-04T08:01:37;24.00;30.10
70051;SHT30;57391;51.306;22.680;2023-06-04T08:04:12;24.09;29.60
70051;SHT30;57391;51.306;22.680;2023-06-04T08:06:40;24.14;28.79
70051;SHT30;57391;51.306;22.680;2023-06-04T08:09:08;24.14;28.48
70051;SHT30;57391;51.306;22.680;2023-06-04T08:11:36;24.15;29.59
70051;SHT30;57391;51.306;22.680;2023-06-04T08:14:05;24.17;28.39
70051;SHT30;57391;51.306;22.680;2023-06-04T08:16:33;24.21;28.93
70051;SHT30;57391;51.306;22.680;2023-06-04T08:19:00;24.37;30.51
70051;SHT30;57391;51.306;22.680;2023-06-04T08:21:27;24.65;29.96
70051;SHT30;57391;51.306;22.680;2023-06-04T08:23:55;24.53;28.75
70051;SHT30;57391;51.306;22.680;2023-06-04T08:26:23;24.25;28.45
70051;SHT30;57391;51.306;22.680;2023-06-04T08:28:50;24.06;28.58
70051;SHT30;57391;51.306;22.680;2023-06-04T08:31:18;24.05;28.75
70051;SHT30;57391;51.306;22.680;2023-06-04T08:33:45;24.17;29.56
70051;SHT30;57391;51.306;22.680;2023-06-04T08:36:13;24.27;29.76
70051;SHT30;57391;51.306;22.680;2023-06-04T08:38:44;24.43;29.19
70051;SHT30;57391;51.306;22.680;2023-06-04T08:41:15;24.57;28.76
70051;SHT30;57391;51.306;22.680;2023-06-04T08:43:49;24.42;28.38
70051;SHT30;57391;51.306;22.680;2023-06-04T08:46:17;24.02;27.89
70051;SHT30;57391;51.306;22.680;2023-06-04T08:48:47;23.94;29.41
70051;SHT30;57391;51.306;22.680;2023-06-04T08:51:16;23.99;29.22
70051;SHT30;57391;51.306;22.680;2023-06-04T08:53:45;23.95;28.97
70051;SHT30;57391;51.306;22.680;2023-06-04T08:56:16;24.02;30.23
70051;SHT30;57391;51.306;22.680;2023-06-04T08:58:43;24.11;29.65
70051;SHT30;57391;51.306;22.680;2023-06-04T09:01:12;24.02;29.48
70051;SHT30;57391;51.306;22.680;2023-06-04T09:03:47;23.85;29.93
70051;SHT30;57391;51.306;22.680;2023-06-04T09:06:15;23.81;30.51
70051;SHT30;57391;51.306;22.680;2023-06-04T09:08:43;23.88;29.26
70051;SHT30;57391;51.306;22.680;2023-06-04T09:11:13;23.81;29.90
70051;SHT30;57391;51.306;22.680;2023-06-04T09:13:42;23.65;28.39
70051;SHT30;57391;51.306;22.680;2023-06-04T09:16:13;23.46;28.20
70051;SHT30;57391;51.306;22.680;2023-06-04T09:18:41;23.32;28.82
70051;SHT30;57391;51.306;22.680;2023-06-04T09:21:09;23.18;28.51
70051;SHT30;57391;51.306;22.680;2023-06-04T09:23:36;23.08;28.75
70051;SHT30;57391;51.306;22.680;2023-06-04T09:26:12;23.13;29.37
70051;SHT30;57391;51.306;22.680;2023-06-04T09:28:40;23.15;28.80
70051;SHT30;57391;51.306;22.680;2023-06-04T09:31:09;23.18;30.08
70051;SHT30;57391;51.306;22.680;2023-06-04T09:33:51;23.41;30.65
70051;SHT30;57391;51.306;22.680;2023-06-04T09:36:29;23.57;30.74
70051;SHT30;57391;51.306;22.680;2023-06-04T09:39:04;23.68;30.16
70051;SHT30;57391;51.306;22.680;2023-06-04T09:44:45;23.35;29.42
70051;SHT30;57391;51.306;22.680;2023-06-04T09:47:42;23.29;30.26
70051;SHT30;57391;51.306;22.680;2023-06-04T09:50:15;23.21;29.89
70051;SHT30;57391;51.306;22.680;2023-06-04T09:53:01;23.06;30.09
70051;SHT30;57391;51.306;22.680;2023-06-04T09:55:57;22.91;29.55
70051;SHT30;57391;51.306;22.680;2023-06-04T09:58:33;22.77;30.74
70051;SHT30;57391;51.306;22.680;2023-06-04T10:01:03;22.74;30.14
70051;SHT30;57391;51.306;22.680;2023-06-04T10:03:33;22.69;30.69
70051;SHT30;57391;51.306;22.680;2023-06-04T10:06:04;22.62;30.41
70051;SHT30;57391;51.306;22.680;2023-06-04T10:08:39;22.56;31.10
70051;SHT30;57391;51.306;22.680;2023-06-04T10:11:09;22.62;30.74
70051;SHT30;57391;51.306;22.680;2023-06-04T10:13:53;22.65;31.74
70051;SHT30;57391;51.306;22.680;2023-06-04T10:16:29;22.57;30.30
70051;SHT30;57391;51.306;22.680;2023-06-04T10:19:00;22.49;30.71
70051;SHT30;57391;51.306;22.680;2023-06-04T10:21:30;22.53;31.37
70051;SHT30;57391;51.306;22.680;2023-06-04T10:24:01;22.43;30.67
70051;SHT30;57391;51.306;22.680;2023-06-04T10:26:29;22.36;31.64
70051;SHT30;57391;51.306;22.680;2023-06-04T10:29:00;22.41;31.91
70051;SHT30;57391;51.306;22.680;2023-06-04T10:31:30;22.42;31.73
70051;SHT30;57391;51.306;22.680;2023-06-04T10:33:59;22.42;31.80
70051;SHT30;57391;51.306;22.680;2023-06-04T10:36:27;22.61;31.94
70051;SHT30;57391;51.306;22.680;2023-06-04T10:38:55;22.85;32.14
70051;SHT30;57391;51.306;22.680;2023-06-04T10:41:23;22.98;31.01
70051;SHT30;57391;51.306;22.680;2023-06-04T10:43:52;23.04;30.42
70051;SHT30;57391;51.306;22.680;2023-06-04T10:46:41;23.10;30.84
70051;SHT30;57391;51.306;22.680;2023-06-04T10:49:11;23.18;29.80
70051;SHT30;57391;51.306;22.680;2023-06-04T10:51:41;23.24;29.69
70051;SHT30;57391;51.306;22.680;2023-06-04T10:54:10;23.31;29.48
70051;SHT30;57391;51.306;22.680;2023-06-04T10:56:50;23.30;28.93
70051;SHT30;57391;51.306;22.680;2023-06-04T10:59:17;23.35;29.04
70051;SHT30;57391;51.306;22.680;2023-06-04T11:01:45;23.30;29.21
70051;SHT30;57391;51.306;22.680;2023-06-04T11:04:20;23.23;29.40
70051;SHT30;57391;51.306;22.680;2023-06-04T11:07:05;23.08;29.83
70051;SHT30;57391;51.306;22.680;2023-06-04T11:09:37;22.91;29.63
70051;SHT30;57391;51.306;22.680;2023-06-04T11:12:15;22.69;30.55
70051;SHT30;57391;51.306;22.680;2023-06-04T11:14:56;22.47;29.80
70051;SHT30;57391;51.306;22.680;2023-06-04T11:17:25;22.29;30.65
70051;SHT30;57391;51.306;22.680;2023-06-04T11:19:52;22.23;30.85
70051;SHT30;57391;51.306;22.680;2023-06-04T11:22:22;22.23;31.57
70051;SHT30;57391;51.306;22.680;2023-06-04T11:24:55;22.36;31.62
70051;SHT30;57391;51.306;22.680;2023-06-04T11:27:25;22.66;32.12
70051;SHT30;57391;51.306;22.680;2023-06-04T11:29:57;22.97;31.10
70051;SHT30;57391;51.306;22.680;2023-06-04T11:32:24;23.20;31.33
70051;SHT30;57391;51.306;22.680;2023-06-04T11:35:06;23.44;30.92
70051;SHT30;57391;51.306;22.680;2023-06-04T11:37:54;23.62;30.93
70051;SHT30;57391;51.306;22.680;2023-06-04T11:40:24;23.58;30.49
70051;SHT30;57391;51.306;22.680;2023-06-04T11:42:53;23.46;29.42
70051;SHT30;57391;51.306;22.680;2023-06-04T11:45:22;23.33;29.91
70051;SHT30;57391;51.306;22.680;2023-06-04T11:47:57;23.26;30.23
70051;SHT30;57391;51.306;22.680;2023-06-04T11:50:32;23.25;30.29
70051;SHT30;57391;51.306;22.680;2023-06-04T11:53:00;23.26;29.55
70051;SHT30;57391;51.306;22.680;2023-06-04T11:55:27;23.30;29.64
70051;SHT30;57391;51.306;22.680;2023-06-04T11:57:54;23.19;29.56
70051;SHT30;57391;51.306;22.680;2023-06-04T12:00:22;23.05;30.36
70051;SHT30;57391;51.306;22.680;2023-06-04T12:02:54;22.97;29.92
70051;SHT30;57391;51.306;22.680;2023-06-04T12:05:27;22.93;29.86
70051;SHT30;57391;51.306;22.680;2023-06-04T12:08:22;22.93;30.28
70051;SHT30;57391;51.306;22.680;2023-06-04T12:10:49;23.00;30.06
70051;SHT30;57391;51.306;22.680;2023-06-04T12:13:20;22.96;29.11
70051;SHT30;57391;51.306;22.680;2023-06-04T12:16:00;22.96;29.78
70051;SHT30;57391;51.306;22.680;2023-06-04T12:18:31;23.01;29.76
70051;SHT30;57391;51.306;22.680;2023-06-04T12:21:02;22.97;29.40
70051;SHT30;57391;51.306;22.680;2023-06-04T12:24:10;22.98;30.13
70051;SHT30;57391;51.306;22.680;2023-06-04T12:26:40;23.11;30.91
70051;SHT30;57391;51.306;22.680;2023-06-04T12:29:11;23.20;29.86
70051;SHT30;57391;51.306;22.680;2023-06-04T12:31:40;23.14;29.80
70051;SHT30;57391;51.306;22.680;2023-06-04T12:34:15;23.11;30.24
70051;SHT30;57391;51.306;22.680;2023-06-04T12:36:44;23.09;29.15
70051;SHT30;57391;51.306;22.680;2023-06-04T12:39:11;23.15;30.22
70051;SHT30;57391;51.306;22.680;2023-06-04T12:41:39;23.22;30.75
70051;SHT30;57391;51.306;22.680;2023-06-04T12:44:13;23.33;30.17
70051;SHT30;57391;51.306;22.680;2023-06-04T12:46:40;23.39;30.52
70051;SHT30;57391;51.306;22.680;2023-06-04T12:49:07;23.44;30.19
70051;SHT30;57391;51.306;22.680;2023-06-04T12:51:35;23.52;30.55
70051;SHT30;57391;51.306;22.680;2023-06-04T12:54:03;23.57;30.52
70051;SHT30;57391;51.306;22.680;2023-06-04T12:56:31;23.55;29.91
70051;SHT30;57391;51.306;22.680;2023-06-04T12:58:58;23.49;30.07
70051;SHT30;57391;51.306;22.680;2023-06-04T13:01:26;23.46;30.02
70051;SHT30;57391;51.306;22.680;2023-06-04T13:03:53;23.45;29.07
70051;SHT30;57391;51.306;22.680;2023-06-04T13:06:21;23.38;29.85
70051;SHT30;57391;51.306;22.680;2023-06-04T13:08:49;23.36;30.17
70051;SHT30;57391;51.306;22.680;2023-06-04T13:11:16;23.29;29.69
70051;SHT30;57391;51.306;22.680;2023-06-04T13:13:44;23.26;30.63
70051;SHT30;57391;51.306;22.680;2023-06-04T13:16:11;23.25;30.52
70051;SHT30;57391;51.306;22.680;2023-06-04T13:18:38;23.27;30.07
70051;SHT30;57391;51.306;22.680;2023-06-04T13:21:09;23.32;30.23
70051;SHT30;57391;51.306;22.680;2023-06-04T13:23:45;23.41;30.41
70051;SHT30;57391;51.306;22.680;2023-06-04T13:26:12;23.50;30.26
70051;SHT30;57391;51.306;22.680;2023-06-04T13:28:40;23.50;28.72
70051;SHT30;57391;51.306;22.680;2023-06-04T13:31:08;23.45;28.93
70051;SHT30;57391;51.306;22.680;2023-06-04T13:33:37;23.44;29.17
70051;SHT30;57391;51.306;22.680;2023-06-04T13:36:04;23.50;30.99
70051;SHT30;57391;51.306;22.680;2023-06-04T13:38:33;23.58;31.52
70051;SHT30;57391;51.306;22.680;2023-06-04T13:41:03;23.63;30.21
70051;SHT30;57391;51.306;22.680;2023-06-04T13:43:34;23.65;29.54
70051;SHT30;57391;51.306;22.680;2023-06-04T13:46:01;23.66;30.35
70051;SHT30;57391;51.306;22.680;2023-06-04T13:48:28;23.70;29.54
70051;SHT30;57391;51.306;22.680;2023-06-04T13:50:56;23.68;28.82
70051;SHT30;57391;51.306;22.680;2023-06-04T13:53:24;23.61;28.82
70051;SHT30;57391;51.306;22.680;2023-06-04T13:55:51;23.58;29.54
70051;SHT30;57391;51.306;22.680;2023-06-04T13:58:24;23.61;29.84
70051;SHT30;57391;51.306;22.680;2023-06-04T14:00:53;23.64;29.24
70051;SHT30;57391;51.306;22.680;2023-06-04T14:03:20;23.63;30.25
70051;SHT30;57391;51.306;22.680;2023-06-04T14:05:48;23.68;31.07
70051;SHT30;57391;51.306;22.680;2023-06-04T14:08:15;23.72;30.61
70051;SHT30;57391;51.306;22.680;2023-06-04T14:10:42;23.79;30.24
70051;SHT30;57391;51.306;22.680;2023-06-04T14:13:09;23.82;29.66
70051;SHT30;57391;51.306;22.680;2023-06-04T14:15:37;23.74;29.58
70051;SHT30;57391;51.306;22.680;2023-06-04T14:18:07;23.64;30.07
70051;SHT30;57391;51.306;22.680;2023-06-04T14:20:34;23.51;29.77
70051;SHT30;57391;51.306;22.680;2023-06-04T14:23:02;23.35;29.54
70051;SHT30;57391;51.306;22.680;2023-06-04T14:25:29;23.23;29.44
70051;SHT30;57391;51.306;22.680;2023-06-04T14:27:57;23.12;29.90
70051;SHT30;57391;51.306;22.680;2023-06-04T14:30:24;23.02;30.00
70051;SHT30;57391;51.306;22.680;2023-06-04T14:32:51;22.94;29.82
70051;SHT30;57391;51.306;22.680;2023-06-04T14:35:18;22.86;30.13
70051;SHT30;57391;51.306;22.680;2023-06-04T14:37:46;22.75;29.82
70051;SHT30;57391;51.306;22.680;2023-06-04T14:40:15;22.69;30.34
70051;SHT30;57391;51.306;22.680;2023-06-04T14:42:42;22.67;30.26
70051;SHT30;57391;51.306;22.680;2023-06-04T14:45:10;22.58;29.99
70051;SHT30;57391;51.306;22.680;2023-06-04T14:47:37;22.53;30.24
70051;SHT30;57391;51.306;22.680;2023-06-04T14:50:05;22.58;30.72
70051;SHT30;57391;51.306;22.680;2023-06-04T14:52:33;22.64;30.60
70051;SHT30;57391;51.306;22.680;2023-06-04T14:55:00;22.73;31.97
70051;SHT30;57391;51.306;22.680;2023-06-04T14:57:27;22.85;31.52
70051;SHT30;57391;51.306;22.680;2023-06-04T14:59:55;22.90;30.49
70051;SHT30;57391;51.306;22.680;2023-06-04T15:02:22;22.93;30.90
70051;SHT30;57391;51.306;22.680;2023-06-04T15:04:49;22.94;30.87
70051;SHT30;57391;51.306;22.680;2023-06-04T15:07:16;22.96;30.56
70051;SHT30;57391;51.306;22.680;2023-06-04T15:09:45;22.95;30.31
70051;SHT30;57391;51.306;22.680;2023-06-04T15:12:16;22.95;30.30
70051;SHT30;57391;51.306;22.680;2023-06-04T15:14:44;22.98;30.59
70051;SHT30;57391;51.306;22.680;2023-06-04T15:17:12;23.00;30.66
70051;SHT30;57391;51.306;22.680;2023-06-04T15:19:46;22.99;30.61
70051;SHT30;57391;51.306;22.680;2023-06-04T15:22:14;23.00;31.37
70051;SHT30;57391;51.306;22.680;2023-06-04T15:24:41;23.00;31.39
70051;SHT30;57391;51.306;22.680;2023-06-04T15:27:08;22.98;30.08
70051;SHT30;57391;51.306;22.680;2023-06-04T15:29:36;22.89;29.74
70051;SHT30;57391;51.306;22.680;2023-06-04T15:32:04;22.82;29.98
70051;SHT30;57391;51.306;22.680;2023-06-04T15:34:31;22.75;30.01
70051;SHT30;57391;51.306;22.680;2023-06-04T15:37:01;22.71;30.19
70051;SHT30;57391;51.306;22.680;2023-06-04T15:39:29;22.72;30.45